Terminal Aerodrome Forecast
Issued by NWS

Home | Current Version | Previous Version | Graphics & Text | Print | Product List | Glossary Off
Versions: 1 2 3 4 5 6 7 8 9 10 11 12 13 14 15

000
FTUS43 KMPX 260520
TAFRNH
TAF
KRNH 260520Z 2606/2706 06008KT P6SM OVC012
     FM260700 04007KT 5SM -RA BR OVC008
     FM260800 03007KT 3SM -RADZ BR SCT003 OVC005
     FM261800 02005KT 6SM BR OVC009=

USA.gov is the U.S. government's official web portal to all federal, state and local government web resources and services.